FAWB

Wonderboom Airport

Pretoria, South Africa
METAR FAWB 191100Z 33006KT CAVOK 34/10 Q1015
Observed Flight Rules
Dec-19 @ 11:00 UTC (38 minutes ago) Visual Flight Rules
Wind Visibility Clouds
330° at 6 knots 10,000+ meters
  • Clear skies
Temperatures Readings
Current 34°C / 93°F
Dewpoint 10°C / 50°F
Humidity 23%
Altimeter 29.97" Hg
Pressure 1015 hPa
Elevation 1248
METAR FAWB 191100Z 33006KT CAVOK 34/10 Q1015
Observed Flight Rules
Dec-19 @ 11:00 UTC
(38 minutes ago)
VFR
Wind Visibility
330° at 6 knots 10,000+ meters
Clouds
  • Clear skies
Temperature Dewpoint
34°C / 93°F 10°C / 50°F
Humidity Altimeter Pressure
23% 29.97" Hg 1015 hPa